Aviation Digital Data Service (ADDS)

Output produced by METARs form (1853 UTC 02 September 2014)
found at http://aviationweather.gov/adds/metars/
 
METAR text: KSPB 021753Z AUTO 00000KT 10SM OVC037 20/11 A2995 RMK AO2 SLP141 T02000106 10206 20133 58003
Conditions at: KSPB (SCAPPOOSE , OR, US) observed 1753 UTC 02 September 2014
Temperature: 20.0°C (68°F)
Dewpoint: 10.6°C (51°F) [RH = 55%]
Pressure (altimeter): 29.95 inches Hg (1014.3 mb)
[Sea-level pressure: 1014.1 mb]
Winds: calm
Visibility: 10 or more miles (16+ km)
Ceiling: 3700 feet AGL
Clouds: overcast cloud deck at 3700 feet AGL
Weather: automated observation with no human augmentation;
there may or may not be significant weather present at this time